FDB74X OPMT-OMDB
Flight info
| Callsign | FDB74X |
|---|---|
| Flight time | N/A |
| Altitude | 30000 |
| Route | RAJAN J119 SK G214 PG/N0480F320 G665 ASVIB N312 MOBET M324 PATAT L519 PUVAL |
| Aircraft | B738/M-SDE2E3FGHIRWXY/LB1 |
Departure
| Time | 2026-05-04 20:54 |
|---|---|
| Airport | Multan International Airport (OPMT) |
Arrival
| Time | N/A |
|---|---|
| Airport | Dubai International Airport (OMDB) |
| Time | Latitude | Longitude | Altitude | Speed | Heading |
|---|---|---|---|---|---|
| 2026-05-04 20:26 | 30.19680 | 71.42288 | 411 ft | 0 kts | 98° |
| 2026-05-04 20:46 | 30.19681 | 71.42279 | 411 ft | 4 kts | 98° |
| 2026-05-04 20:47 | 30.19685 | 71.42249 | 408 ft | 4 kts | 99° |
| 2026-05-04 20:47 | 30.19689 | 71.42218 | 410 ft | 4 kts | 101° |
| 2026-05-04 20:47 | 30.19691 | 71.42206 | 411 ft | 1 kts | 101° |
| 2026-05-04 20:50 | 30.19691 | 71.42209 | 411 ft | 2 kts | 106° |
| 2026-05-04 20:51 | 30.19658 | 71.42227 | 407 ft | 7 kts | 178° |
| 2026-05-04 20:51 | 30.19611 | 71.42212 | 411 ft | 7 kts | 196° |
| 2026-05-04 20:51 | 30.19564 | 71.42196 | 409 ft | 7 kts | 199° |
| 2026-05-04 20:51 | 30.19521 | 71.42169 | 411 ft | 7 kts | 211° |
| 2026-05-04 20:52 | 30.19485 | 71.42126 | 408 ft | 10 kts | 251° |
| 2026-05-04 20:52 | 30.19434 | 71.42057 | 411 ft | 12 kts | 199° |
| 2026-05-04 20:52 | 30.19335 | 71.42039 | 411 ft | 15 kts | 183° |
| 2026-05-04 20:52 | 30.19265 | 71.41989 | 411 ft | 12 kts | 249° |
| 2026-05-04 20:53 | 30.19276 | 71.41899 | 409 ft | 11 kts | 297° |
| 2026-05-04 20:53 | 30.19309 | 71.41852 | 411 ft | 11 kts | 329° |
| 2026-05-04 20:53 | 30.19450 | 71.41849 | 411 ft | 40 kts | 5° |
| 2026-05-04 20:53 | 30.20236 | 71.41909 | 410 ft | 129 kts | 4° |
| 2026-05-04 20:54 | 30.20931 | 71.41972 | 414 ft | 165 kts | 11° |
| 2026-05-04 20:54 | 30.22115 | 71.42128 | 968 ft | 180 kts | 7° |
| 2026-05-04 20:54 | 30.23335 | 71.42258 | 1951 ft | 169 kts | 2° |
| 2026-05-04 20:54 | 30.24425 | 71.41697 | 2625 ft | 182 kts | 316° |
| 2026-05-04 20:55 | 30.25043 | 71.40274 | 2846 ft | 219 kts | 280° |
| 2026-05-04 20:55 | 30.24957 | 71.38448 | 3068 ft | 240 kts | 250° |
| 2026-05-04 20:55 | 30.24322 | 71.36583 | 3344 ft | 256 kts | 247° |
| 2026-05-04 20:55 | 30.23656 | 71.34648 | 3872 ft | 263 kts | 248° |
| 2026-05-04 20:56 | 30.23011 | 71.32701 | 4724 ft | 255 kts | 248° |
| 2026-05-04 20:56 | 30.22391 | 71.30776 | 5453 ft | 255 kts | 249° |
| 2026-05-04 20:56 | 30.21771 | 71.28843 | 6049 ft | 259 kts | 249° |
| 2026-05-04 20:56 | 30.21137 | 71.26877 | 6758 ft | 260 kts | 250° |
| 2026-05-04 20:57 | 30.20497 | 71.24935 | 7588 ft | 258 kts | 245° |
| 2026-05-04 20:57 | 30.19354 | 71.23338 | 8281 ft | 265 kts | 216° |
| 2026-05-04 20:57 | 30.17607 | 71.22427 | 8639 ft | 286 kts | 199° |
| 2026-05-04 20:57 | 30.15666 | 71.21767 | 9243 ft | 294 kts | 198° |
| 2026-05-04 20:58 | 30.13684 | 71.21122 | 9976 ft | 297 kts | 198° |
| 2026-05-04 20:58 | 30.11640 | 71.20453 | 10339 ft | 315 kts | 198° |
| 2026-05-04 20:58 | 30.09456 | 71.19728 | 10499 ft | 338 kts | 198° |
| 2026-05-04 20:58 | 30.07122 | 71.18946 | 10650 ft | 359 kts | 198° |
| 2026-05-04 20:59 | 30.04658 | 71.18115 | 10780 ft | 379 kts | 198° |
| 2026-05-04 20:59 | 30.02079 | 71.17244 | 11079 ft | 390 kts | 198° |
| 2026-05-04 20:59 | 29.99458 | 71.16357 | 11611 ft | 394 kts | 198° |
| 2026-05-04 20:59 | 29.96829 | 71.15422 | 12206 ft | 396 kts | 203° |
| 2026-05-04 21:00 | 29.94490 | 71.13789 | 12746 ft | 394 kts | 223° |
| 2026-05-04 21:00 | 29.92493 | 71.11619 | 13345 ft | 396 kts | 226° |
| 2026-05-04 21:00 | 29.90504 | 71.09405 | 13843 ft | 400 kts | 226° |
| 2026-05-04 21:00 | 29.88496 | 71.07172 | 14314 ft | 403 kts | 226° |
| 2026-05-04 21:01 | 29.86463 | 71.04926 | 14814 ft | 406 kts | 226° |
| 2026-05-04 21:01 | 29.84412 | 71.02675 | 15312 ft | 409 kts | 225° |
| 2026-05-04 21:01 | 29.82339 | 71.00412 | 15827 ft | 411 kts | 225° |
| 2026-05-04 21:01 | 29.80251 | 70.98140 | 16306 ft | 414 kts | 225° |
| 2026-05-04 21:02 | 29.78210 | 70.95923 | 16760 ft | 417 kts | 225° |
| 2026-05-04 21:02 | 29.76077 | 70.93607 | 17245 ft | 419 kts | 225° |
| 2026-05-04 21:02 | 29.73948 | 70.91298 | 17707 ft | 422 kts | 225° |
| 2026-05-04 21:02 | 29.71796 | 70.88963 | 18158 ft | 424 kts | 225° |
| 2026-05-04 21:03 | 29.69643 | 70.86630 | 18565 ft | 426 kts | 225° |
| 2026-05-04 21:03 | 29.67476 | 70.84283 | 18999 ft | 427 kts | 225° |
| 2026-05-04 21:03 | 29.65309 | 70.81937 | 19419 ft | 429 kts | 225° |
| 2026-05-04 21:03 | 29.63133 | 70.79589 | 19818 ft | 431 kts | 225° |
| 2026-05-04 21:04 | 29.60937 | 70.77228 | 20231 ft | 432 kts | 225° |
| 2026-05-04 21:04 | 29.58733 | 70.74864 | 20631 ft | 434 kts | 225° |
| 2026-05-04 21:04 | 29.56548 | 70.72521 | 21005 ft | 436 kts | 225° |
| 2026-05-04 21:04 | 29.54327 | 70.70142 | 21380 ft | 438 kts | 225° |
| 2026-05-04 21:05 | 29.52095 | 70.67750 | 21751 ft | 440 kts | 225° |
| 2026-05-04 21:05 | 29.49856 | 70.65352 | 22122 ft | 441 kts | 225° |
| 2026-05-04 21:05 | 29.47605 | 70.62941 | 22460 ft | 444 kts | 225° |
| 2026-05-04 21:05 | 29.45341 | 70.60519 | 22797 ft | 446 kts | 225° |
| 2026-05-04 21:06 | 29.43064 | 70.58083 | 23143 ft | 448 kts | 225° |
| 2026-05-04 21:06 | 29.40777 | 70.55639 | 23451 ft | 450 kts | 225° |
| 2026-05-04 21:06 | 29.38476 | 70.53182 | 23716 ft | 452 kts | 225° |
| 2026-05-04 21:06 | 29.36163 | 70.50713 | 23983 ft | 454 kts | 226° |
| 2026-05-04 21:07 | 29.33845 | 70.48239 | 24250 ft | 456 kts | 226° |
| 2026-05-04 21:07 | 29.31517 | 70.45755 | 24512 ft | 458 kts | 226° |
| 2026-05-04 21:07 | 29.29182 | 70.43267 | 24783 ft | 459 kts | 226° |
| 2026-05-04 21:07 | 29.26834 | 70.40767 | 25040 ft | 461 kts | 226° |
| 2026-05-04 21:08 | 29.24479 | 70.38261 | 25269 ft | 463 kts | 226° |
| 2026-05-04 21:08 | 29.22114 | 70.35746 | 25503 ft | 465 kts | 226° |
| 2026-05-04 21:08 | 29.19737 | 70.33220 | 25747 ft | 466 kts | 226° |
| 2026-05-04 21:08 | 29.17361 | 70.30697 | 25984 ft | 468 kts | 226° |
| 2026-05-04 21:09 | 29.14963 | 70.28153 | 26189 ft | 469 kts | 226° |
| 2026-05-04 21:09 | 29.12564 | 70.25609 | 26427 ft | 471 kts | 226° |
| 2026-05-04 21:09 | 29.10154 | 70.23056 | 26736 ft | 470 kts | 226° |
| 2026-05-04 21:09 | 29.07760 | 70.20522 | 27088 ft | 468 kts | 227° |
| 2026-05-04 21:10 | 29.05378 | 70.18002 | 27444 ft | 467 kts | 227° |
| 2026-05-04 21:10 | 29.02994 | 70.15480 | 27774 ft | 466 kts | 227° |
| 2026-05-04 21:10 | 29.00648 | 70.13001 | 28058 ft | 466 kts | 227° |
| 2026-05-04 21:10 | 28.98327 | 70.10550 | 28369 ft | 465 kts | 227° |
| 2026-05-04 21:11 | 28.95951 | 70.08043 | 28735 ft | 464 kts | 227° |
| 2026-05-04 21:11 | 28.93581 | 70.05543 | 29094 ft | 462 kts | 227° |
| 2026-05-04 21:11 | 28.91216 | 70.03050 | 29428 ft | 462 kts | 227° |
| 2026-05-04 21:11 | 28.88855 | 70.00562 | 29742 ft | 461 kts | 227° |
| 2026-05-04 21:12 | 28.84125 | 69.95582 | 29764 ft | 462 kts | 227° |
| 2026-05-04 21:12 | 28.79411 | 69.90627 | 29755 ft | 460 kts | 227° |
| 2026-05-04 21:13 | 28.74698 | 69.85679 | 29763 ft | 459 kts | 227° |
| 2026-05-04 21:13 | 28.69993 | 69.80747 | 29755 ft | 460 kts | 227° |
| 2026-05-04 21:14 | 28.65287 | 69.75820 | 29748 ft | 460 kts | 227° |
| 2026-05-04 21:14 | 28.60572 | 69.70889 | 29744 ft | 460 kts | 227° |
| 2026-05-04 21:15 | 28.55853 | 69.65959 | 29739 ft | 460 kts | 227° |
| 2026-05-04 21:15 | 28.51135 | 69.61038 | 29745 ft | 461 kts | 227° |
| 2026-05-04 21:16 | 28.46407 | 69.56111 | 29734 ft | 462 kts | 227° |
| 2026-05-04 21:16 | 28.41670 | 69.51182 | 29730 ft | 462 kts | 227° |
| 2026-05-04 21:17 | 28.36924 | 69.46251 | 29734 ft | 463 kts | 227° |
| 2026-05-04 21:17 | 28.32167 | 69.41313 | 29732 ft | 463 kts | 227° |
| 2026-05-04 21:18 | 28.27402 | 69.36376 | 29728 ft | 464 kts | 227° |
| 2026-05-04 21:18 | 28.22663 | 69.31470 | 29729 ft | 464 kts | 227° |
| 2026-05-04 21:19 | 28.17896 | 69.26541 | 29731 ft | 464 kts | 227° |
| 2026-05-04 21:19 | 28.13121 | 69.21610 | 29730 ft | 464 kts | 227° |
| 2026-05-04 21:20 | 28.08348 | 69.16688 | 29726 ft | 464 kts | 227° |
| 2026-05-04 21:20 | 28.03565 | 69.11761 | 29730 ft | 464 kts | 227° |
| 2026-05-04 21:21 | 27.98783 | 69.06841 | 29722 ft | 464 kts | 227° |
| 2026-05-04 21:21 | 27.94002 | 69.01928 | 29728 ft | 465 kts | 227° |
| 2026-05-04 21:22 | 27.89219 | 68.97018 | 29726 ft | 464 kts | 227° |
| 2026-05-04 21:22 | 27.84432 | 68.92112 | 29723 ft | 464 kts | 227° |
| 2026-05-04 21:23 | 27.79638 | 68.87205 | 29726 ft | 464 kts | 228° |
| 2026-05-04 21:23 | 27.74980 | 68.82293 | 29712 ft | 459 kts | 235° |
| 2026-05-04 21:24 | 27.71808 | 68.76239 | 29722 ft | 443 kts | 254° |
| 2026-05-04 21:24 | 27.70447 | 68.69547 | 29720 ft | 437 kts | 264° |
| 2026-05-04 21:25 | 27.69405 | 68.62771 | 29717 ft | 437 kts | 264° |
| 2026-05-04 21:25 | 27.68344 | 68.56056 | 29723 ft | 438 kts | 263° |
| 2026-05-04 21:26 | 27.67243 | 68.49288 | 29716 ft | 438 kts | 263° |
| 2026-05-04 21:26 | 27.66129 | 68.42526 | 29714 ft | 438 kts | 263° |
| 2026-05-04 21:27 | 27.65007 | 68.35751 | 29718 ft | 439 kts | 263° |
| 2026-05-04 21:27 | 27.63884 | 68.28984 | 29712 ft | 439 kts | 263° |
| 2026-05-04 21:28 | 27.62948 | 68.23355 | 29717 ft | 439 kts | 263° |
| 2026-05-04 21:28 | 27.61628 | 68.15446 | 29713 ft | 439 kts | 263° |
| 2026-05-04 21:29 | 27.60504 | 68.08735 | 29710 ft | 439 kts | 263° |
| 2026-05-04 21:29 | 27.59552 | 68.03066 | 29711 ft | 439 kts | 263° |
| 2026-05-04 21:30 | 27.58416 | 67.96308 | 29708 ft | 438 kts | 263° |
| 2026-05-04 21:30 | 27.57093 | 67.88472 | 29707 ft | 437 kts | 263° |
| 2026-05-04 21:31 | 27.55576 | 67.79520 | 29703 ft | 437 kts | 263° |